Flight Track Log - Related Links

Times and Time Zones

All times are in EDT time to prevent confusion due to time zone crossing. See the ASQ5325 flight status page for this flight to view local times or setup timezone preferences in your user account.

Time Position Orientation Groundspeed Altitude Reporting Facility
EDT Latitude Longitude Course Direction KTS MPH feet Rate Location/Type
Thu 04:30:47 PM 40.8167 -73.8833 313° West 163 188 2,200  Level New York TRACON
Thu 04:32:22 PM 40.9033 -73.9092 347° North 233 268 7,000 2,748 Climbing New York Center
Thu 04:33:22 PM 40.9456 -73.9689 313° West 217 250 9,300 2,300 Climbing New York Center
Thu 04:34:22 PM 40.9806 -74.0500 300° West 241 277 11,600 1,780 Climbing New York Center
Thu 04:35:20 PM 41.0239 -74.1431 302° West 280 322 12,800 1,500 Climbing New York Center
Thu 04:36:00 PM 41.1008 -74.3796 313° West  Level FlightAware Approximate
Thu 04:36:22 PM 41.0731 -74.2472 302° West 326 375 14,600  Level New York Center
Thu 04:37:21 PM 41.1200 -74.3433 303° West 342 394 16,400 1,200 Climbing New York Center
Thu 04:38:22 PM 41.1786 -74.4678 302° West 357 411 17,000 550 Climbing New York Center
Thu 04:39:21 PM 41.2272 -74.5753 301° West 369 425 17,500 1,350 Climbing New York Center
Thu 04:40:22 PM 41.2986 -74.6925 309° West 374 430 19,700 1,900 Climbing New York Center
Thu 04:41:21 PM 41.3578 -74.7900 309° West 379 436 21,300 1,150 Climbing New York Center
Thu 04:42:22 PM 41.4247 -74.8989 309° West 379 436 22,000 353 Climbing New York Center
Thu 04:43:20 PM 41.4958 -75.0114 310° West 385 443 22,000  Level New York Center
Thu 04:44:21 PM 41.5625 -75.1236 308° West 390 449 22,000  Level New York Center
Thu 04:45:22 PM 41.6181 -75.2522 300° West 390 449 22,000  Level New York Center
Thu 04:46:20 PM 41.6803 -75.3703 305° West 390 449 22,000  Level New York Center
Thu 04:47:21 PM 41.7425 -75.4831 307° West 390 449 22,000  Level New York Center
Thu 04:48:23 PM 41.8042 -75.6014 305° West 390 449 22,000  Level New York Center
Thu 04:49:22 PM 41.8661 -75.7200 305° West 390 449 22,000  Level New York Center
Thu 04:50:21 PM 41.9275 -75.8389 305° West 390 449 22,000  Level New York Center
Thu 04:51:22 PM 41.9894 -75.9525 306° West 385 443 22,000  Level New York Center
Thu 04:52:23 PM 42.0469 -76.0658 304° West 385 443 22,000  Level New York Center
Thu 04:54:04 PM 42.1508 -76.2619 306° West 367 422 22,000  Level Cleveland Center
Thu 04:55:06 PM 42.2089 -76.3736 305° West 367 422 22,000  Level Cleveland Center
Thu 04:56:08 PM 42.2672 -76.4872 305° West 367 422 22,000  Level Cleveland Center
Thu 04:57:11 PM 42.3256 -76.5997 305° West 366 421 22,000 -672 Level Cleveland Center
Thu 04:58:13 PM 42.3942 -76.7361 304° West 367 422 20,600 -1,645 Descending Cleveland Center
Thu 04:59:15 PM 42.4503 -76.8447 305° West 358 412 18,600 -1,935 Descending Cleveland Center
Thu 05:00:17 PM 42.5044 -76.9517 305° West 350 403 16,600 -1,744 Descending Cleveland Center
Thu 05:00:41 PM 42.5308 -76.9994 307° West 344 396 16,100 -1,355 Descending Cleveland Center
Thu 05:01:19 PM 42.5678 -77.0458 317° Northwest 339 390 15,200 -1,592 Descending Cleveland Center
Thu 05:01:30 PM 42.5911 -77.0692 324° Northwest 330 380 14,800 -1,355 Descending Cleveland Center
Thu 05:02:21 PM 42.6392 -77.1244 320° Northwest 337 388 13,800 -1,444 Descending Cleveland Center
Thu 05:02:24 PM 42.6550 -77.1431 319° Northwest 330 380 13,500 -1,742 Descending Cleveland Center
Thu 05:03:23 PM 42.7231 -77.2178 321° Northwest 333 383 12,000 -1,475 Descending Cleveland Center
Thu 05:03:25 PM 42.7247 -77.2211 304° West 330 380 12,000 -1,429 Level Cleveland Center
Thu 05:04:26 PM 42.7878 -77.2917 321° Northwest 310 357 10,500 -1,537 Descending Cleveland Center
Thu 05:05:26 PM 42.8486 -77.3508 325° Northwest 238 274 8,900 -1,452 Descending Cleveland Center
Thu 05:05:28 PM 42.8433 -77.3483 161° South 259 298 9,000 -1,475 Climbing Cleveland Center
Thu 05:06:27 PM 42.9044 -77.3914 333° Northwest 225 259 7,400 -1,452 Descending Cleveland Center
Thu 05:06:30 PM 42.8994 -77.3878 152° Southeast 237 273 7,500 -1,300 Climbing Cleveland Center
Thu 05:07:27 PM 42.9564 -77.4308 331° Northwest 211 243 6,100 -1,161 Descending Cleveland Center
Thu 05:07:32 PM 42.9517 -77.4272 151° Southeast 223 257 6,300 -1,279 Climbing Cleveland Center
Thu 05:08:28 PM 43.0100 -77.4708 331° Northwest 226 260 4,800 -1,548 Descending Cleveland Center
Thu 05:08:34 PM 43.0156 -77.4761 325° Northwest 218 251 4,700 -1,279 Descending Cleveland Center
Thu 05:09:29 PM 43.0672 -77.5178 329° Northwest 239 275 3,500 -1,258 Descending Cleveland Center
Thu 05:09:36 PM 43.0731 -77.5203 343° North 231 266 3,400 -783 Descending Cleveland Center
Thu 05:10:38 PM 43.1339 -77.5633 333° Northwest 240 276 2,600 -738 Descending Cleveland Center
Thu 05:10:41 PM 43.1403 -77.5717 316° Northwest 238 274 2,600 -387 Level Cleveland Center
Thu 05:11:40 PM 43.1672 -77.6236 305° West 216 249 2,200 -590 Descending Cleveland Center
Thu 05:11:42 PM 43.1633 -77.6328 240° Southwest 164 189 2,000 -1,143 Descending Cleveland Center
Thu 05:12:43 PM 43.1378 -77.6611 219° Southwest 177 204 1,000 -1,075 Descending Cleveland Center
Thu 05:12:49 PM 43.1308 -77.6678 215° Southwest 122 140 800 -387 Descending Cleveland Center
Thu 05:13:45 PM 43.1058 -77.6903 213° Southwest 152 175 600 -214 Descending Cleveland Center
Thu 05:15:00 PM 43.1167 -77.6667 324° Northwest  Level FlightAware Approximate

Login

Don't have an account? Register now (free) for customized features, flight alerts, and more!